Latest Weather Observations for PORTABLE BTSG (DFES)

IDW60801

Issued at 8:53 pm WST Monday 29 May 2023 (issued every 10 minutes, with the page automatically refreshed every 10 minutes)

About weather observations | Map of weather stations | Latest weather observations for WA | Other Formats
Station Details ID: 250145 Name: PORTABLE WA AWS 7 (DFES) Lat: -32.51 Lon: 115.81 Height: 0.0 m

Portable automatic weather stations (PAWS) are operated by other organisations, such as Fire and Emergency Services, and are included here by agreement. Portable stations may be deployed to a location for a short period and their location may be subject to change without notice. Wind observations from these stations are provided from heights of either three (3) or ten (10) metres above ground level (AGL).

Data from the previous 72 hours. | See also: Recent months for locations in Western Australia
Date/Time
WST
Temp
°C
App
Temp
°C
Dew
Point
°C
Rel
Hum
%
Delta-T
°C
Wind Press
QNH
hPa
Press
MSL
hPa
Rain since
9am
mm
Dir  Spd
km/h
Gust
km/h
Spd
kts
Gust
kts
29/08:40pm 17.9 15.2 7.2 49 - N 11 13 6 7 - - 0.0
29/08:30pm 17.7 14.9 7.0 49 - N 11 13 6 7 - - 0.0
29/08:20pm 17.3 14.1 6.9 50 - N 13 15 7 8 - - 0.0
29/08:10pm 17.2 14.4 6.9 50 - N 11 13 6 7 - - 0.0
29/08:00pm 17.2 15.1 6.8 50 - NNW 7 9 4 5 - - 0.0
29/07:50pm 17.3 15.3 7.0 50 - N 7 9 4 5 - - 0.0
29/07:40pm 17.7 15.6 6.6 48 - N 7 9 4 5 - - 0.0
29/07:30pm 17.7 15.5 6.4 47 - NNE 7 7 4 4 - - 0.0
29/07:20pm 17.8 15.6 6.1 46 - NNE 7 9 4 5 - - 0.0
29/07:10pm 18.0 15.8 6.2 46 - N 7 9 4 5 - - 0.0
29/07:00pm 17.8 15.1 5.7 45 - NNE 9 13 5 7 - - 0.0
29/06:50pm 17.4 15.4 6.1 47 - NNE 6 7 3 4 - - 0.0
29/06:40pm 17.2 15.2 6.2 48 - NNE 6 7 3 4 - - 0.0
29/06:30pm 17.1 15.5 6.4 49 - N 4 4 2 2 - - 0.0
29/06:20pm 17.3 15.8 6.6 49 - N 4 6 2 3 - - 0.0
29/06:10pm 17.7 15.8 6.8 49 - N 6 7 3 4 - - 0.0
29/06:00pm 18.3 15.6 5.8 44 - N 9 9 5 5 - - 0.0
29/05:50pm 18.4 16.1 5.7 43 - N 7 9 4 5 - - 0.0
29/05:40pm 18.6 16.3 5.8 43 - NNE 7 7 4 4 - - 0.0
29/05:30pm 18.8 16.7 5.7 42 - NNE 6 7 3 4 - - 0.0
29/05:20pm 19.1 17.0 5.7 41 - N 6 7 3 4 - - 0.0
29/05:10pm 19.3 17.0 5.5 40 - N 7 7 4 4 - - 0.0
29/05:00pm 19.5 17.2 5.6 40 - N 7 7 4 4 - - 0.0
29/04:50pm 19.7 17.4 5.9 40 - N 7 9 4 5 - - 0.0
29/04:40pm 19.8 17.6 6.1 40 - N 7 9 4 5 - - 0.0
29/04:30pm 20.0 18.0 6.4 41 - N 6 7 3 4 - - 0.0
29/04:20pm 20.1 18.0 6.5 41 - N 7 7 4 4 - - 0.0
29/04:10pm 20.3 18.3 6.4 40 - N 6 7 3 4 - - 0.0
29/04:00pm 20.4 18.3 6.5 40 - N 7 7 4 4 - - 0.0
29/03:50pm 20.5 18.6 6.5 40 - N 6 7 3 4 - - 0.0
29/03:40pm 20.6 18.6 6.4 39 - N 6 6 3 3 - - 0.0
29/03:30pm 20.7 18.6 6.0 38 - N 6 7 3 4 - - 0.0
29/03:20pm 20.8 18.5 5.7 37 - N 7 9 4 5 - - 0.0
29/03:10pm 20.9 18.2 5.4 36 - N 9 11 5 6 - - 0.0
29/03:00pm 21.1 18.3 5.1 35 - N 9 11 5 6 - - 0.0
29/02:50pm 21.3 18.0 4.8 34 - N 11 15 6 8 - - 0.0
29/02:40pm 21.5 18.2 4.3 32 - N 11 15 6 8 - - 0.0
29/02:30pm 21.5 17.4 4.2 32 - N 15 17 8 9 - - 0.0
29/02:20pm 21.6 18.2 4.2 32 - N 11 13 6 7 - - 0.0
29/02:10pm 21.5 18.1 3.8 31 - N 11 15 6 8 - - 0.0
29/02:00pm 21.4 16.7 3.4 30 - N 17 20 9 11 - - 0.0
29/01:50pm 21.5 17.6 3.2 30 - N 13 17 7 9 - - 0.0
29/01:40pm 21.4 17.1 3.2 30 - N 15 17 8 9 - - 0.0
29/01:30pm 21.2 16.9 3.5 31 - N 15 19 8 10 - - 0.0
29/01:20pm 21.0 17.5 3.5 31 - N 11 15 6 8 - - 0.0
29/01:10pm 20.6 16.7 3.6 32 - N 13 17 7 9 - - 0.0
29/01:00pm 20.4 17.0 4.2 34 - N 11 15 6 8 - - 0.0
29/12:50pm 20.3 17.2 5.4 37 - N 11 13 6 7 - - 0.0
29/12:40pm 20.3 17.5 5.1 37 - N 9 11 5 6 - - 0.0
29/12:30pm 20.4 17.6 5.3 37 - N 9 11 5 6 - - 0.0
29/12:20pm 20.4 16.8 4.8 36 - N 13 13 7 7 - - 0.0
29/12:10pm 20.4 16.7 4.5 35 - N 13 15 7 8 - - 0.0
29/12:00pm 20.1 16.8 4.5 36 - N 11 13 6 7 - - 0.0
29/11:50am 19.9 16.1 3.9 34 - N 13 17 7 9 - - 0.0
29/11:40am 20.0 16.5 3.6 34 - N 11 17 6 9 - - 0.0
29/11:30am 20.0 16.1 3.3 33 - N 13 17 7 9 - - 0.0
29/11:20am 20.1 16.1 2.9 32 - N 13 17 7 9 - - 0.0
29/11:10am 20.0 16.9 3.4 33 - N 9 11 5 6 - - 0.0
29/11:00am 19.8 16.6 3.2 33 - NNE 9 11 5 6 - - 0.0
29/10:50am 19.6 16.4 2.9 33 - N 9 13 5 7 - - 0.0
29/10:40am 19.3 16.8 4.6 38 - NNE 7 7 4 4 - - 0.0
29/10:30am 19.0 16.5 4.8 39 - N 7 11 4 6 - - 0.0
29/10:20am 18.5 16.0 4.8 40 - N 7 9 4 5 - - 0.0
29/10:10am 18.3 15.3 4.3 39 - N 9 11 5 6 - - 0.0
29/10:00am 18.2 16.0 5.4 43 - NNE 6 7 3 4 - - 0.0
29/09:50am 17.8 15.8 6.2 46 - NNE 6 7 3 4 - - 0.0
29/09:40am 16.6 15.3 7.8 56 - NNE 4 6 2 3 - - 0.0
29/09:30am 15.9 15.2 8.7 62 - N 2 4 1 2 - - 0.0
29/09:20am 14.8 14.3 9.5 70 - NNW 2 2 1 1 - - 0.0
29/09:10am 13.0 12.4 8.9 76 - N 2 2 1 1 - - 0.0
29/09:00am 12.2 11.5 8.7 79 - NNW 2 2 1 1 - - 0.0
29/08:50am 11.5 11.1 8.4 81 - CALM 0 2 0 1 - - 0.0
29/08:40am 10.8 10.0 8.0 83 - S 2 2 1 1 - - 0.0
29/08:30am 10.3 9.5 8.0 86 - NNE 2 2 1 1 - - 0.0
29/08:20am 9.7 8.7 7.4 85 - NE 2 2 1 1 - - 0.0
29/08:10am 9.3 8.3 7.4 88 - ENE 2 2 1 1 - - 0.0
29/08:00am 9.0 8.4 7.2 88 - CALM 0 2 0 1 - - 0.0
29/07:50am 8.9 7.8 7.0 88 - SSE 2 2 1 1 - - 0.0
29/07:40am 8.9 7.8 6.9 87 - E 2 2 1 1 - - 0.0
29/07:30am 8.8 7.7 6.8 87 - E 2 2 1 1 - - 0.0
29/07:20am 8.7 7.6 6.8 88 - E 2 2 1 1 - - 0.0
29/07:10am 8.7 7.6 6.8 88 - E 2 2 1 1 - - 0.0
29/07:00am 9.0 7.9 6.8 86 - E 2 2 1 1 - - 0.0
29/06:50am 9.0 7.8 6.6 85 - E 2 2 1 1 - - 0.0
29/06:40am 8.8 7.3 6.6 86 - SE 4 4 2 2 - - 0.0
29/06:30am 8.8 7.6 6.6 86 - SSE 2 4 1 2 - - 0.0
29/06:20am 8.8 7.3 6.7 87 - SE 4 4 2 2 - - 0.0
29/06:10am 8.7 7.6 6.7 87 - SE 2 4 1 2 - - 0.0
29/06:00am 8.6 7.5 6.7 88 - SSE 2 2 1 1 - - 0.0
29/05:50am 8.5 7.3 6.6 88 - SSE 2 2 1 1 - - 0.0
29/05:40am 8.3 7.1 6.6 89 - S 2 2 1 1 - - 0.0
29/05:30am 8.3 7.1 6.5 88 - SSE 2 2 1 1 - - 0.0
29/05:20am 8.2 6.6 6.5 89 - SE 4 4 2 2 - - 0.0
29/05:10am 8.1 6.5 6.5 90 - SSE 4 4 2 2 - - 0.0
29/05:00am 8.0 6.4 6.4 90 - SSW 4 4 2 2 - - 0.0
29/04:50am 7.8 6.2 6.3 90 - SSW 4 4 2 2 - - 0.0
29/04:40am 7.7 6.1 6.2 90 - SSW 4 4 2 2 - - 0.0
29/04:30am 7.7 6.4 6.1 90 - SW 2 4 1 2 - - 0.0
29/04:20am 7.7 6.4 6.2 90 - S 2 2 1 1 - - 0.0
29/04:10am 7.7 6.4 6.1 90 - SSW 2 2 1 1 - - 0.0
29/04:00am 7.6 6.7 6.1 90 - CALM 0 2 0 1 - - 0.0
29/03:50am 7.9 6.6 6.0 88 - SE 2 4 1 2 - - 0.0
29/03:40am 8.1 6.9 6.3 88 - ESE 2 4 1 2 - - 0.0
29/03:30am 8.0 6.4 6.5 90 - E 4 4 2 2 - - 0.0
29/03:20am 8.0 6.8 6.3 89 - ESE 2 4 1 2 - - 0.0
29/03:10am 8.1 6.5 6.4 89 - E 4 6 2 3 - - 0.0
29/03:00am 7.9 6.3 6.3 90 - ESE 4 4 2 2 - - 0.0
29/02:50am 7.5 6.2 6.2 91 - SSE 2 4 1 2 - - 0.0
29/02:40am 7.3 6.0 5.9 91 - SSW 2 2 1 1 - - 0.0
29/02:30am 7.5 6.2 6.0 90 - SSW 2 2 1 1 - - 0.0
29/02:20am 7.8 6.9 6.2 90 - CALM 0 2 0 1 - - 0.0
29/02:10am 7.8 7.0 6.4 91 - CALM 0 0 0 0 - - 0.0
29/02:00am 7.7 6.4 6.1 90 - NE 2 2 1 1 - - 0.0
29/01:50am 7.6 6.3 6.2 91 - ESE 2 2 1 1 - - 0.0
29/01:40am 7.5 6.2 6.0 90 - ESE 2 2 1 1 - - 0.0
29/01:30am 7.5 6.2 6.1 91 - N 2 4 1 2 - - 0.0
29/01:20am 7.7 6.4 6.2 90 - NNW 2 2 1 1 - - 0.0
29/01:10am 7.8 6.3 6.6 92 - NNE 4 6 2 3 - - 0.0
29/01:00am 7.5 5.9 6.3 92 - N 4 4 2 2 - - 0.0
29/12:50am 7.3 6.0 5.8 90 - NNW 2 2 1 1 - - 0.0
29/12:40am 7.6 6.3 6.1 90 - N 2 4 1 2 - - 0.0
29/12:30am 7.7 6.1 6.2 90 - NNE 4 4 2 2 - - 0.0
29/12:20am 7.6 6.4 6.3 91 - ENE 2 2 1 1 - - 0.0
29/12:10am 7.7 6.1 6.4 91 - E 4 4 2 2 - - 0.0
29/12:00am 7.5 6.3 6.4 93 - E 2 4 1 2 - - 0.0
 
Date/Time
WST
Temp
°C
App
Temp
°C
Dew
Point
°C
Rel
Hum
%
Delta-T
°C
Wind Press
QNH
hPa
Press
MSL
hPa
Rain since
9am
mm
Dir  Spd
km/h
Gust
km/h
Spd
kts
Gust
kts
28/11:50pm 7.5 6.7 6.4 93 - CALM 0 2 0 1 - - 0.0
28/11:40pm 7.5 6.3 6.5 93 - SSE 2 2 1 1 - - 0.0
28/11:30pm 7.3 6.0 6.2 93 - S 2 2 1 1 - - 0.0
28/11:20pm 7.3 6.0 6.1 92 - S 2 2 1 1 - - 0.0
28/11:10pm 7.4 6.1 6.0 91 - S 2 4 1 2 - - 0.0
28/11:00pm 7.7 6.4 6.2 90 - SE 2 4 1 2 - - 0.0
28/10:50pm 8.1 6.5 6.3 88 - ESE 4 6 2 3 - - 0.0
28/10:40pm 8.7 6.8 6.8 88 - SE 6 6 3 3 - - 0.0
28/10:30pm 9.0 7.1 7.4 90 - ESE 7 9 4 5 - - 0.0
28/10:20pm 9.0 7.3 7.5 90 - ESE 6 7 3 4 - - 0.0
28/10:10pm 9.1 7.3 7.1 87 - ESE 6 7 3 4 - - 0.0
28/10:00pm 9.8 8.1 7.6 86 - ESE 6 7 3 4 - - 0.0
28/09:50pm 10.1 8.3 8.0 87 - E 7 7 4 4 - - 0.0
28/09:40pm 10.3 8.5 8.0 86 - ESE 7 7 4 4 - - 0.0
28/09:30pm 10.2 8.6 8.2 87 - E 6 7 3 4 - - 0.0
28/09:20pm 9.9 8.3 7.9 87 - ESE 6 6 3 3 - - 0.0
28/09:10pm 10.0 8.4 8.1 88 - ESE 6 6 3 3 - - 0.0
28/09:00pm 9.9 8.3 8.1 88 - ESE 6 6 3 3 - - 0.0
28/08:50pm 9.7 8.5 8.0 89 - ESE 4 6 2 3 - - 0.0
28/08:40pm 9.9 9.1 8.1 88 - E 2 2 1 1 - - 0.0
28/08:30pm 10.1 9.3 8.1 87 - SE 2 4 1 2 - - 0.0
28/08:20pm 10.7 9.5 8.0 83 - SE 4 4 2 2 - - 0.0
28/08:10pm 11.7 10.6 8.4 80 - SE 4 6 2 3 - - 0.0
28/08:00pm 12.2 10.8 8.8 80 - SE 6 6 3 3 - - 0.0
28/07:50pm 12.3 10.9 8.7 79 - SE 6 6 3 3 - - 0.0
28/07:40pm 12.5 11.0 8.6 77 - SE 6 7 3 4 - - 0.0
28/07:30pm 12.8 11.4 8.8 76 - SE 6 6 3 3 - - 0.0
28/07:20pm 13.2 11.8 9.0 75 - SE 6 7 3 4 - - 0.0
28/07:10pm 13.7 12.5 9.4 75 - SSE 6 7 3 4 - - 0.0
28/07:00pm 14.0 12.6 9.5 74 - SSE 7 7 4 4 - - 0.0
28/06:50pm 14.1 12.7 9.7 75 - SSE 7 7 4 4 - - 0.0
28/06:40pm 14.3 13.0 9.9 75 - SSE 7 7 4 4 - - 0.0
28/06:30pm 14.3 12.9 9.7 74 - S 7 7 4 4 - - 0.0
28/06:20pm 14.0 12.6 9.5 74 - S 7 7 4 4 - - 0.0
28/06:10pm 13.7 12.3 9.5 76 - SSW 7 7 4 4 - - 0.0
28/06:00pm 13.8 12.4 9.6 76 - SW 7 7 4 4 - - 0.0
28/05:50pm 14.0 12.2 9.6 75 - SSW 9 9 5 5 - - 0.0
28/05:40pm 14.4 13.0 9.6 73 - SW 7 9 4 5 - - 0.0
28/05:30pm 14.8 13.5 9.8 72 - SSW 7 7 4 4 - - 0.0
28/05:20pm 15.3 13.9 9.6 69 - SSW 7 9 4 5 - - 0.0
28/05:10pm 15.8 14.0 9.4 65 - SSW 9 9 5 5 - - 0.0
28/05:00pm 16.4 15.2 9.4 63 - SW 6 7 3 4 - - 0.0
28/04:50pm 17.2 15.4 9.3 59 - SSW 9 11 5 6 - - 0.0
28/04:40pm 18.0 16.1 9.2 56 - SSW 9 11 5 6 - - 0.0
28/04:30pm 19.0 17.1 9.0 52 - SSW 9 11 5 6 - - 0.0
28/04:20pm 19.3 17.4 9.0 51 - SSW 9 11 5 6 - - 0.0
28/04:10pm 19.7 17.4 9.1 50 - SSW 11 11 6 6 - - 0.0
28/04:00pm 20.0 17.6 8.7 48 - SSW 11 13 6 7 - - 0.0
28/03:50pm 20.1 18.2 8.9 48 - SSW 9 11 5 6 - - 0.0
28/03:40pm 20.9 19.2 8.4 44 - SSE 7 11 4 6 - - 0.0
28/03:30pm 20.9 18.7 8.0 43 - SSE 9 11 5 6 - - 0.0
28/03:20pm 21.2 19.8 8.7 44 - S 6 11 3 6 - - 0.0
28/03:10pm 21.6 19.9 8.4 42 - SE 7 9 4 5 - - 0.0
28/03:00pm 22.2 21.2 8.7 42 - SW 4 6 2 3 - - 0.0
28/02:50pm 21.7 20.4 7.8 40 - ESE 4 6 2 3 - - 0.0
28/02:40pm 21.3 20.1 7.9 42 - ESE 4 7 2 4 - - 0.0
28/02:30pm 20.9 18.8 8.1 43 - SSE 9 11 5 6 - - 0.0
28/02:20pm 20.8 19.1 8.4 45 - SE 7 13 4 7 - - 0.0
28/02:10pm 20.8 18.7 8.3 44 - SSE 9 13 5 7 - - 0.0
28/02:00pm 20.7 18.3 8.6 45 - SSE 11 15 6 8 - - 0.0
28/01:50pm 20.8 18.8 8.7 45 - S 9 15 5 8 - - 0.0
28/01:40pm 20.9 18.4 8.2 44 - SSE 11 13 6 7 - - 0.0
28/01:30pm 20.6 18.1 8.4 45 - SSE 11 15 6 8 - - 0.0
28/01:20pm 20.7 18.3 8.7 46 - S 11 13 6 7 - - 0.0
28/01:10pm 21.1 19.5 8.6 44 - SSE 7 13 4 7 - - 0.0
28/01:00pm 20.7 18.9 8.1 44 - SE 7 11 4 6 - - 0.0
28/12:50pm 20.7 18.7 8.6 45 - SE 9 13 5 7 - - 0.0
28/12:40pm 20.9 19.4 8.5 45 - SSE 6 7 3 4 - - 0.0
28/12:30pm 21.0 19.8 8.2 43 - SSE 4 7 2 4 - - 0.0
28/12:20pm 20.5 18.9 7.9 44 - ESE 6 9 3 5 - - 0.0
28/12:10pm 20.1 18.4 8.2 46 - ESE 7 11 4 6 - - 0.0
28/12:00pm 20.1 18.3 8.1 46 - ESE 7 11 4 6 - - 0.0
28/11:50am 20.0 18.2 8.0 46 - ESE 7 9 4 5 - - 0.0
28/11:40am 19.6 17.8 8.1 47 - SE 7 11 4 6 - - 0.0
28/11:30am 19.8 18.1 8.3 47 - SSE 7 13 4 7 - - 0.0
28/11:20am 20.9 19.9 8.7 45 - S 4 11 2 6 - - 0.0
28/11:10am 19.9 18.3 8.1 46 - NE 6 11 3 6 - - 0.0
28/11:00am 19.4 17.6 8.0 47 - ENE 7 11 4 6 - - 0.0
28/10:50am 19.2 17.5 7.7 47 - NNE 6 7 3 4 - - 0.0
28/10:40am 18.5 16.4 8.2 51 - ENE 9 11 5 6 - - 0.0
28/10:30am 18.1 16.0 8.2 52 - ENE 9 11 5 6 - - 0.0
28/10:20am 17.8 15.7 8.1 53 - ENE 9 11 5 6 - - 0.0
28/10:10am 17.5 15.5 8.6 56 - NE 9 11 5 6 - - 0.0
28/10:00am 17.2 15.5 8.5 56 - ENE 7 9 4 5 - - 0.0
28/09:50am 16.7 15.2 8.5 58 - NE 6 7 3 4 - - 0.0
28/09:40am 15.6 14.5 8.4 62 - NE 4 6 2 3 - - 0.0
28/09:30am 14.1 12.5 8.1 67 - N 6 6 3 3 - - 0.0
28/09:20am 13.0 11.4 7.8 70 - N 6 7 3 4 - - 0.0
28/09:10am 12.1 10.4 7.5 73 - N 6 7 3 4 - - 0.0
28/09:00am 11.3 9.9 7.3 76 - N 4 6 2 3 - - 0.0
28/08:50am 10.4 8.5 6.9 79 - N 6 6 3 3 - - 0.0
28/08:40am 9.3 7.7 6.4 82 - N 4 6 2 3 - - 0.0
28/08:30am 8.0 5.9 5.7 85 - N 6 7 3 4 - - 0.0
28/08:20am 7.0 4.7 5.0 87 - N 6 7 3 4 - - 0.0
28/08:10am 6.1 3.7 4.4 89 - N 6 6 3 3 - - 0.0
28/08:00am 5.7 4.0 3.9 88 - NNE 2 4 1 2 - - 0.0
28/07:50am 5.0 2.8 3.5 90 - N 4 4 2 2 - - 0.0
28/07:40am 4.6 2.0 3.3 91 - N 6 6 3 3 - - 0.0
28/07:30am 4.1 1.8 2.9 92 - NNE 4 6 2 3 - - 0.0
28/07:20am 3.6 0.9 2.4 92 - N 6 7 3 4 - - 0.0
28/07:10am 3.7 0.8 2.6 92 - N 7 9 4 5 - - 0.0
28/07:00am 3.8 1.5 2.8 93 - N 4 6 2 3 - - 0.0
28/06:50am 3.9 2.0 2.9 93 - NNE 2 4 1 2 - - 0.0
28/06:40am 3.9 1.6 2.8 92 - N 4 6 2 3 - - 0.0
28/06:30am 3.8 1.1 2.7 92 - NNW 6 6 3 3 - - 0.0
28/06:20am 4.0 1.7 2.9 92 - N 4 4 2 2 - - 0.0
28/06:10am 3.9 1.2 2.8 92 - N 6 7 3 4 - - 0.0
28/06:00am 4.1 1.5 3.0 92 - N 6 7 3 4 - - 0.0
28/05:50am 3.9 1.6 2.8 92 - NNE 4 6 2 3 - - 0.0
28/05:40am 3.5 1.1 2.3 92 - N 4 4 2 2 - - 0.0
28/05:30am 3.3 0.9 2.1 92 - N 4 6 2 3 - - 0.0
28/05:20am 3.2 0.8 2.0 92 - N 4 6 2 3 - - 0.0
28/05:10am 3.5 1.1 2.4 92 - N 4 6 2 3 - - 0.0
28/05:00am 3.0 0.5 1.8 92 - N 4 6 2 3 - - 0.0
28/04:50am 2.9 0.4 1.6 91 - N 4 4 2 2 - - 0.0
28/04:40am 3.0 0.5 1.6 90 - N 4 4 2 2 - - 0.0
28/04:30am 3.4 1.0 2.2 92 - N 4 4 2 2 - - 0.0
28/04:20am 3.5 1.1 2.3 92 - NNE 4 4 2 2 - - 0.0
28/04:10am 3.3 1.3 2.1 92 - N 2 2 1 1 - - 0.0
28/04:00am 3.3 0.9 2.0 91 - N 4 4 2 2 - - 0.0
28/03:50am 3.4 1.4 2.2 92 - N 2 4 1 2 - - 0.0
28/03:40am 3.3 1.2 2.0 91 - N 2 2 1 1 - - 0.0
28/03:30am 3.5 1.5 2.2 91 - NW 2 4 1 2 - - 0.0
28/03:20am 3.4 1.0 2.2 92 - N 4 4 2 2 - - 0.0
28/03:10am 3.4 1.4 2.1 91 - N 2 2 1 1 - - 0.0
28/03:00am 3.6 1.6 2.2 90 - WNW 2 2 1 1 - - 0.0
28/02:50am 4.0 1.7 2.8 92 - NNW 4 6 2 3 - - 0.0
28/02:40am 3.9 1.6 2.6 91 - N 4 6 2 3 - - 0.0
28/02:30am 3.9 1.6 2.6 91 - N 4 6 2 3 - - 0.0
28/02:20am 4.0 1.7 2.7 91 - N 4 4 2 2 - - 0.0
28/02:10am 4.0 2.1 2.7 91 - NNE 2 2 1 1 - - 0.0
28/02:00am 4.0 2.1 2.6 91 - N 2 4 1 2 - - 0.0
28/01:50am 4.0 2.0 2.4 89 - N 2 4 1 2 - - 0.0
28/01:40am 4.2 1.9 2.8 91 - N 4 4 2 2 - - 0.0
28/01:30am 4.2 2.3 2.8 91 - NNE 2 2 1 1 - - 0.0
28/01:20am 4.1 2.6 2.8 91 - CALM 0 2 0 1 - - 0.0
28/01:10am 4.2 2.3 2.7 90 - SSW 2 2 1 1 - - 0.0
28/01:00am 4.4 2.9 3.0 91 - CALM 0 2 0 1 - - 0.0
28/12:50am 4.4 2.5 3.1 91 - N 2 4 1 2 - - 0.0
28/12:40am 4.1 2.2 2.7 91 - N 2 2 1 1 - - 0.0
28/12:30am 4.1 2.1 2.3 88 - WSW 2 4 1 2 - - 0.0
28/12:20am 4.8 2.9 3.0 88 - N 2 2 1 1 - - 0.0
28/12:10am 5.1 3.0 3.7 91 - NNE 4 6 2 3 - - 0.0
28/12:00am 5.0 3.2 3.6 91 - NNE 2 2 1 1 - - 0.0
 
Date/Time
WST
Temp
°C
App
Temp
°C
Dew
Point
°C
Rel
Hum
%
Delta-T
°C
Wind Press
QNH
hPa
Press
MSL
hPa
Rain since
9am
mm
Dir  Spd
km/h
Gust
km/h
Spd
kts
Gust
kts
27/11:50pm 4.9 3.1 3.5 91 - ENE 2 4 1 2 - - 0.0
27/11:40pm 5.2 3.0 3.6 89 - E 4 6 2 3 - - 0.0
27/11:30pm 5.2 3.1 3.7 90 - ESE 4 6 2 3 - - 0.0
27/11:20pm 5.1 3.3 3.7 91 - ESE 2 4 1 2 - - 0.0
27/11:10pm 5.3 3.6 3.8 90 - E 2 4 1 2 - - 0.0
27/11:00pm 5.5 3.8 3.9 89 - ESE 2 4 1 2 - - 0.0
27/10:50pm 5.7 3.6 4.0 89 - E 4 6 2 3 - - 0.0
27/10:40pm 6.0 4.0 4.2 88 - ESE 4 6 2 3 - - 0.0
27/10:30pm 6.1 4.5 4.3 88 - E 2 4 1 2 - - 0.0
27/10:20pm 6.2 4.6 4.5 89 - ENE 2 2 1 1 - - 0.0
27/10:10pm 6.2 4.6 4.5 89 - N 2 2 1 1 - - 0.0
27/10:00pm 6.4 5.3 4.9 90 - CALM 0 2 0 1 - - 0.0
27/09:50pm 6.4 5.2 4.8 89 - CALM 0 0 0 0 - - 0.0
27/09:40pm 6.7 5.2 4.8 88 - E 2 2 1 1 - - 0.0
27/09:30pm 7.0 5.1 4.8 86 - ESE 4 4 2 2 - - 0.0
27/09:20pm 7.4 5.9 5.2 86 - ESE 2 4 1 2 - - 0.0
27/09:10pm 7.8 5.6 5.4 85 - ESE 6 6 3 3 - - 0.0
27/09:00pm 7.9 6.1 5.6 85 - ESE 4 6 2 3 - - 0.0
27/08:50pm 8.0 6.6 5.7 85 - ESE 2 4 1 2 - - 0.0
27/08:40pm 8.4 6.7 5.8 84 - SE 4 4 2 2 - - 0.0
27/08:30pm 8.5 6.5 6.2 85 - SE 6 6 3 3 - - 0.0
27/08:20pm 8.5 6.5 6.1 85 - SSE 6 6 3 3 - - 0.0
27/08:10pm 8.8 7.1 6.1 83 - SE 4 6 2 3 - - 0.0
27/08:00pm 8.9 7.3 6.2 83 - SE 4 6 2 3 - - 0.0
27/07:50pm 8.9 7.3 6.2 83 - SE 4 6 2 3 - - 0.0
27/07:40pm 9.1 7.5 6.3 82 - ESE 4 4 2 2 - - 0.0
27/07:30pm 9.5 7.9 6.4 81 - SE 4 4 2 2 - - 0.0
27/07:20pm 9.6 8.4 6.6 81 - SSE 2 4 1 2 - - 0.0
27/07:10pm 9.8 8.6 6.6 80 - S 2 4 1 2 - - 0.0
27/07:00pm 9.9 8.8 6.7 80 - S 2 2 1 1 - - 0.0
27/06:50pm 10.2 8.7 6.9 80 - SSW 4 4 2 2 - - 0.0
27/06:40pm 10.8 9.7 6.8 76 - SW 2 4 1 2 - - 0.0
27/06:30pm 11.1 10.0 6.8 75 - SW 2 4 1 2 - - 0.0
27/06:20pm 11.4 9.9 7.0 74 - SW 4 4 2 2 - - 0.0
27/06:10pm 11.6 10.1 6.7 72 - SW 4 4 2 2 - - 0.0
27/06:00pm 12.2 10.6 6.5 68 - SW 4 6 2 3 - - 0.0
27/05:50pm 12.6 11.1 6.6 67 - SW 4 6 2 3 - - 0.0
27/05:40pm 13.2 11.3 6.7 64 - SW 6 6 3 3 - - 0.0
27/05:30pm 14.0 12.1 6.5 60 - WSW 6 6 3 3 - - 0.0
27/05:20pm 14.6 12.4 6.2 57 - SW 7 7 4 4 - - 0.0
27/05:10pm 15.3 13.3 6.4 55 - WSW 6 7 3 4 - - 0.0
27/05:00pm 16.1 13.5 6.0 51 - SW 9 11 5 6 - - 0.0
27/04:50pm 16.7 14.1 6.0 49 - SSW 9 11 5 6 - - 0.0
27/04:40pm 17.1 14.0 5.5 46 - SSW 11 11 6 6 - - 0.0
27/04:30pm 17.5 14.7 5.2 44 - SSW 9 13 5 7 - - 0.0
27/04:20pm 17.7 14.4 4.8 42 - SSW 11 13 6 7 - - 0.0
27/04:10pm 17.9 14.7 5.0 42 - SSW 11 15 6 8 - - 0.0
27/04:00pm 18.2 14.6 4.8 41 - SSW 13 15 7 8 - - 0.0
27/03:50pm 18.5 15.6 4.8 40 - SSW 9 13 5 7 - - 0.0
27/03:40pm 18.7 15.7 4.0 37 - SSW 9 11 5 6 - - 0.0
27/03:30pm 18.7 15.8 4.5 39 - SSW 9 13 5 7 - - 0.0
27/03:20pm 18.8 15.4 4.2 38 - SW 11 13 6 7 - - 0.0
27/03:10pm 18.9 15.9 4.2 37 - SSW 9 11 5 6 - - 0.0
27/03:00pm 18.7 15.6 3.8 37 - S 9 13 5 7 - - 0.0
27/02:50pm 18.8 15.8 4.0 37 - SW 9 11 5 6 - - 0.0
27/02:40pm 19.0 16.0 4.0 37 - SSW 9 11 5 6 - - 0.0
27/02:30pm 19.1 16.5 4.0 36 - S 7 13 4 7 - - 0.0
27/02:20pm 18.9 15.5 3.8 36 - S 11 13 6 7 - - 0.0
27/02:10pm 19.0 15.7 4.5 38 - SSW 11 13 6 7 - - 0.0
27/02:00pm 18.9 15.2 4.2 37 - S 13 17 7 9 - - 0.0
27/01:50pm 18.9 15.1 4.0 37 - SW 13 17 7 9 - - 0.0
27/01:40pm 19.2 16.1 3.8 36 - SSW 9 15 5 8 - - 0.0
27/01:30pm 19.2 16.1 3.8 36 - SSW 9 15 5 8 - - 0.0
27/01:20pm 19.4 16.8 4.0 36 - SW 7 11 4 6 - - 0.0
27/01:10pm 19.7 17.2 3.9 35 - W 6 7 3 4 - - 0.0
27/01:00pm 19.4 17.0 4.1 36 - WNW 6 7 3 4 - - 0.0
27/12:50pm 19.1 16.4 3.8 36 - W 7 9 4 5 - - 0.0
27/12:40pm 19.0 16.4 4.0 37 - SW 7 13 4 7 - - 0.0
27/12:30pm 19.7 17.6 3.9 35 - NE 4 6 2 3 - - 0.0
27/12:20pm 19.4 17.3 3.8 35 - SW 4 7 2 4 - - 0.0
27/12:10pm 18.9 16.8 3.7 36 - WSW 4 7 2 4 - - 0.0
27/12:00pm 18.8 16.3 3.8 37 - S 6 7 3 4 - - 0.0
27/11:50am 18.7 16.2 3.6 36 - S 6 7 3 4 - - 0.0
27/11:40am 18.9 16.4 3.6 36 - SSE 6 7 3 4 - - 0.0
27/11:30am 18.5 15.9 3.4 36 - S 6 7 3 4 - - 0.0
27/11:20am 18.8 16.3 3.6 36 - ESE 6 6 3 3 - - 0.0
27/11:10am 18.8 17.2 4.7 39 - WNW 2 4 1 2 - - 0.0
27/11:00am 18.3 16.2 4.0 38 - W 4 6 2 3 - - 0.0
27/10:50am 18.1 16.1 4.3 40 - E 4 6 2 3 - - 0.0
27/10:40am 17.4 15.4 4.3 42 - E 4 7 2 4 - - 0.0
27/10:30am 17.1 15.2 4.9 44 - E 4 6 2 3 - - 0.0
27/10:20am 16.7 14.8 4.9 45 - ENE 4 6 2 3 - - 0.0
27/10:10am 15.8 13.6 5.3 49 - E 6 9 3 5 - - 0.0
27/10:00am 15.3 12.9 5.2 51 - E 7 9 4 5 - - 0.0
27/09:50am 14.6 12.4 5.3 53 - ENE 6 7 3 4 - - 0.0
27/09:40am 13.8 11.5 4.9 55 - ENE 6 7 3 4 - - 0.0
27/09:30am 13.0 11.1 4.9 58 - ENE 4 6 2 3 - - 0.0
27/09:20am 12.2 10.3 4.9 61 - ENE 4 6 2 3 - - 0.0
27/09:10am 11.2 9.7 5.0 65 - E 2 4 1 2 - - 0.0
27/09:00am 10.1 8.2 4.8 69 - E 4 6 2 3 - - 0.0
27/08:50am 9.6 7.6 4.5 70 - SE 4 6 2 3 - - 0.0
27/08:40am 9.2 7.2 4.6 73 - ESE 4 6 2 3 - - 0.0
27/08:30am 8.5 6.1 4.2 74 - E 6 7 3 4 - - 0.0
27/08:20am 7.4 4.9 3.6 77 - E 6 6 3 3 - - 0.0
27/08:10am 5.9 3.3 3.0 82 - E 6 7 3 4 - - 0.0
27/08:00am 3.6 1.1 1.8 88 - ESE 4 6 2 3 - - 0.0
27/07:50am 3.0 0.0 1.1 87 - E 6 9 3 5 - - 0.0
27/07:40am 2.5 -0.1 1.0 90 - E 4 4 2 2 - - 0.0
27/07:30am 1.9 -0.8 0.6 91 - ENE 4 4 2 2 - - 0.0
27/07:20am 1.4 -1.7 0.2 92 - E 6 6 3 3 - - 0.0
27/07:10am 1.2 -1.9 0.0 92 - ESE 6 7 3 4 - - 0.0
27/07:00am 1.3 -1.4 0.2 92 - ESE 4 6 2 3 - - 0.0
27/06:50am 1.3 -1.0 0.1 92 - E 2 4 1 2 - - 0.0
27/06:40am 1.3 -1.0 0.1 92 - ESE 2 4 1 2 - - 0.0
27/06:30am 1.3 -1.4 0.2 92 - SE 4 4 2 2 - - 0.0
27/06:20am 1.0 -1.8 -0.2 92 - SSE 4 4 2 2 - - 0.0
27/06:10am 1.0 -1.8 -0.2 92 - S 4 6 2 3 - - 0.0
27/06:00am 1.0 -1.4 -0.2 92 - S 2 4 1 2 - - 0.0
27/05:50am 1.0 -1.4 -0.2 92 - SSE 2 2 1 1 - - 0.0
27/05:40am 1.0 -1.4 -0.2 92 - ESE 2 2 1 1 - - 0.0
27/05:30am 0.9 -1.5 -0.5 90 - SE 2 2 1 1 - - 0.0
27/05:20am 1.4 -1.3 0.1 91 - S 4 4 2 2 - - 0.0
27/05:10am 1.6 -0.7 0.4 92 - E 2 2 1 1 - - 0.0
27/05:00am 1.5 -0.8 0.2 91 - E 2 2 1 1 - - 0.0
27/04:50am 1.5 -0.8 0.2 91 - SE 2 2 1 1 - - 0.0
27/04:40am 1.6 -0.7 0.2 90 - SSE 2 2 1 1 - - 0.0
27/04:30am 1.9 -0.4 0.6 91 - E 2 2 1 1 - - 0.0
27/04:20am 1.9 -0.7 0.7 92 - SSE 4 6 2 3 - - 0.0
27/04:10am 1.7 -1.0 0.5 92 - SSE 4 6 2 3 - - 0.0
27/04:00am 1.6 -0.7 0.3 91 - S 2 4 1 2 - - 0.0
27/03:50am 1.8 -0.5 0.5 91 - SSW 2 2 1 1 - - 0.0
27/03:40am 2.0 0.1 0.7 91 - CALM 0 0 0 0 - - 0.0
27/03:30am 2.1 0.2 0.8 91 - CALM 0 0 0 0 - - 0.0
27/03:20am 2.2 0.0 1.1 92 - ENE 2 2 1 1 - - 0.0
27/03:10am 2.0 -0.2 0.8 92 - SE 2 2 1 1 - - 0.0
27/03:00am 2.0 -0.3 0.5 90 - S 2 4 1 2 - - 0.0
27/02:50am 2.5 0.7 0.9 89 - CALM 0 2 0 1 - - 0.0
27/02:40am 3.0 0.9 1.7 91 - E 2 4 1 2 - - 0.0
27/02:30am 3.0 0.9 1.8 92 - E 2 4 1 2 - - 0.0
27/02:20am 3.0 0.6 1.9 92 - E 4 4 2 2 - - 0.0
27/02:10am 2.7 0.2 1.5 92 - ESE 4 4 2 2 - - 0.0
27/02:00am 2.9 0.8 1.7 92 - SE 2 2 1 1 - - 0.0
27/01:50am 2.8 0.7 1.5 91 - SSE 2 2 1 1 - - 0.0
27/01:40am 3.0 0.9 1.6 90 - S 2 2 1 1 - - 0.0
27/01:30am 3.2 1.5 1.9 91 - CALM 0 2 0 1 - - 0.0
27/01:20am 3.4 1.4 2.2 92 - E 2 2 1 1 - - 0.0
27/01:10am 3.5 1.9 2.2 91 - CALM 0 2 0 1 - - 0.0
27/01:00am 3.7 1.7 2.2 90 - E 2 4 1 2 - - 0.0
27/12:50am 4.2 1.9 2.6 89 - ESE 4 4 2 2 - - 0.0
27/12:40am 4.5 2.2 3.0 90 - E 4 4 2 2 - - 0.0
27/12:30am 4.6 2.4 3.1 90 - E 4 4 2 2 - - 0.0
27/12:20am 4.4 2.1 3.0 91 - ESE 4 4 2 2 - - 0.0
27/12:10am 4.5 1.9 3.0 90 - SE 6 6 3 3 - - 0.0
27/12:00am 4.6 2.4 3.5 93 - SE 4 6 2 3 - - 0.0
 
Date/Time
WST
Temp
°C
App
Temp
°C
Dew
Point
°C
Rel
Hum
%
Delta-T
°C
Wind Press
QNH
hPa
Press
MSL
hPa
Rain since
9am
mm
Dir  Spd
km/h
Gust
km/h
Spd
kts
Gust
kts
26/11:50pm 4.3 2.0 3.0 91 - SSE 4 4 2 2 - - 0.0
26/11:40pm 4.4 2.5 3.1 91 - SSE 2 4 1 2 - - 0.0
26/11:30pm 4.5 2.7 3.3 92 - SE 2 2 1 1 - - 0.0
26/11:20pm 4.4 2.2 3.1 91 - S 4 4 2 2 - - 0.0
26/11:10pm 4.5 2.2 3.0 90 - S 4 4 2 2 - - 0.0
26/11:00pm 5.1 2.9 3.2 87 - SSE 4 4 2 2 - - 0.0
26/10:50pm 5.5 3.4 3.9 89 - ESE 4 6 2 3 - - 0.0
26/10:40pm 5.6 3.5 3.8 88 - ESE 4 6 2 3 - - 0.0
26/10:30pm 5.6 3.1 3.8 88 - SE 6 6 3 3 - - 0.0
26/10:20pm 5.9 3.8 3.9 87 - SE 4 6 2 3 - - 0.0
26/10:10pm 5.7 3.6 4.1 89 - SSE 4 4 2 2 - - 0.0
26/10:00pm 5.8 3.7 4.0 88 - S 4 6 2 3 - - 0.0
26/09:50pm 6.3 4.7 4.4 88 - SSE 2 4 1 2 - - 0.0
26/09:40pm 6.6 5.0 4.7 88 - ESE 2 2 1 1 - - 0.0
26/09:30pm 6.7 5.1 4.5 86 - SSE 2 4 1 2 - - 0.0
26/09:20pm 7.2 5.7 4.8 85 - E 2 2 1 1 - - 0.0
26/09:10pm 7.3 5.7 4.7 83 - SE 2 4 1 2 - - 0.0
26/09:00pm 7.5 5.9 4.5 81 - ESE 2 2 1 1 - - 0.0

Other formats

Comma delimited format used in spreadsheet applications
http://www.bom.gov.au/fwo/IDW60801/IDW60801.99405.axf

JavaScript Object Notation format (JSON) in row-major order
http://www.bom.gov.au/fwo/IDW60801/IDW60801.99405.json

Data quality

Most of these data are generated automatically and are frequently updated. Quality checks on data are not normally performed. It is possible for incorrect values to appear. Refer to information at About Latest Weather Observations and please check the disclaimer before using these data.